sensor_id;sensor_type;location;lat;lon;timestamp;P1;durP1;ratioP1;P2;durP2;ratioP2
34832;SDS011;55941;50.800;4.342;2023-04-12T00:00:00;4.70;;;1.42;;
34832;SDS011;55941;50.800;4.342;2023-04-12T00:02:25;8.30;;;1.30;;
34832;SDS011;55941;50.800;4.342;2023-04-12T00:04:51;5.00;;;1.30;;
34832;SDS011;55941;50.800;4.342;2023-04-12T00:07:24;5.60;;;1.63;;
34832;SDS011;55941;50.800;4.342;2023-04-12T00:09:51;7.55;;;1.30;;
34832;SDS011;55941;50.800;4.342;2023-04-12T00:12:17;7.50;;;1.27;;
34832;SDS011;55941;50.800;4.342;2023-04-12T00:14:43;7.45;;;1.48;;
34832;SDS011;55941;50.800;4.342;2023-04-12T00:17:09;5.22;;;1.25;;
34832;SDS011;55941;50.800;4.342;2023-04-12T00:19:36;7.10;;;1.50;;
34832;SDS011;55941;50.800;4.342;2023-04-12T00:22:09;3.70;;;1.25;;
34832;SDS011;55941;50.800;4.342;2023-04-12T00:24:38;3.58;;;1.02;;
34832;SDS011;55941;50.800;4.342;2023-04-12T00:27:04;3.67;;;1.45;;
34832;SDS011;55941;50.800;4.342;2023-04-12T00:29:31;4.63;;;1.20;;
34832;SDS011;55941;50.800;4.342;2023-04-12T00:31:57;3.92;;;1.25;;
34832;SDS011;55941;50.800;4.342;2023-04-12T00:34:25;8.55;;;1.80;;
34832;SDS011;55941;50.800;4.342;2023-04-12T00:36:54;6.68;;;1.30;;
34832;SDS011;55941;50.800;4.342;2023-04-12T00:39:20;6.25;;;1.45;;
34832;SDS011;55941;50.800;4.342;2023-04-12T00:41:46;6.03;;;1.45;;
34832;SDS011;55941;50.800;4.342;2023-04-12T00:44:12;5.20;;;1.27;;
34832;SDS011;55941;50.800;4.342;2023-04-12T00:46:38;10.32;;;1.67;;
34832;SDS011;55941;50.800;4.342;2023-04-12T00:49:04;7.18;;;1.35;;
34832;SDS011;55941;50.800;4.342;2023-04-12T00:51:30;8.45;;;1.40;;
34832;SDS011;55941;50.800;4.342;2023-04-12T00:53:57;9.55;;;2.22;;
34832;SDS011;55941;50.800;4.342;2023-04-12T00:56:25;11.55;;;1.60;;
34832;SDS011;55941;50.800;4.342;2023-04-12T00:58:52;6.38;;;1.52;;
34832;SDS011;55941;50.800;4.342;2023-04-12T01:01:18;7.18;;;1.65;;
34832;SDS011;55941;50.800;4.342;2023-04-12T01:03:45;9.85;;;1.50;;
34832;SDS011;55941;50.800;4.342;2023-04-12T01:06:14;7.53;;;1.48;;
34832;SDS011;55941;50.800;4.342;2023-04-12T01:11:45;8.35;;;1.70;;
34832;SDS011;55941;50.800;4.342;2023-04-12T01:17:06;7.07;;;2.08;;
34832;SDS011;55941;50.800;4.342;2023-04-12T01:28:03;6.65;;;2.00;;
34832;SDS011;55941;50.800;4.342;2023-04-12T01:30:30;8.80;;;1.98;;
34832;SDS011;55941;50.800;4.342;2023-04-12T01:32:57;7.53;;;1.90;;
34832;SDS011;55941;50.800;4.342;2023-04-12T01:35:25;8.32;;;2.15;;
34832;SDS011;55941;50.800;4.342;2023-04-12T01:37:53;6.70;;;1.90;;
34832;SDS011;55941;50.800;4.342;2023-04-12T01:40:19;8.30;;;1.85;;
34832;SDS011;55941;50.800;4.342;2023-04-12T01:42:45;9.82;;;2.05;;
34832;SDS011;55941;50.800;4.342;2023-04-12T01:45:11;5.72;;;1.95;;
34832;SDS011;55941;50.800;4.342;2023-04-12T01:47:36;5.90;;;1.63;;
34832;SDS011;55941;50.800;4.342;2023-04-12T01:50:15;9.20;;;1.73;;
34832;SDS011;55941;50.800;4.342;2023-04-12T01:52:52;12.30;;;2.15;;
34832;SDS011;55941;50.800;4.342;2023-04-12T01:55:32;5.05;;;1.80;;
34832;SDS011;55941;50.800;4.342;2023-04-12T01:58:01;7.68;;;2.13;;
34832;SDS011;55941;50.800;4.342;2023-04-12T02:00:28;12.48;;;2.35;;
34832;SDS011;55941;50.800;4.342;2023-04-12T02:02:55;7.90;;;2.38;;
34832;SDS011;55941;50.800;4.342;2023-04-12T02:05:23;7.88;;;1.75;;
34832;SDS011;55941;50.800;4.342;2023-04-12T02:07:49;7.90;;;2.25;;
34832;SDS011;55941;50.800;4.342;2023-04-12T02:10:26;5.03;;;1.83;;
34832;SDS011;55941;50.800;4.342;2023-04-12T02:12:53;10.07;;;2.25;;
34832;SDS011;55941;50.800;4.342;2023-04-12T02:15:19;6.18;;;2.13;;
34832;SDS011;55941;50.800;4.342;2023-04-12T02:17:45;9.80;;;1.98;;
34832;SDS011;55941;50.800;4.342;2023-04-12T02:20:11;4.78;;;1.83;;
34832;SDS011;55941;50.800;4.342;2023-04-12T02:22:37;4.75;;;1.67;;
34832;SDS011;55941;50.800;4.342;2023-04-12T02:25:03;4.28;;;1.42;;
34832;SDS011;55941;50.800;4.342;2023-04-12T02:27:30;8.25;;;1.27;;
34832;SDS011;55941;50.800;4.342;2023-04-12T02:29:56;3.10;;;1.30;;
34832;SDS011;55941;50.800;4.342;2023-04-12T02:32:22;5.93;;;1.30;;
34832;SDS011;55941;50.800;4.342;2023-04-12T02:34:48;5.78;;;1.30;;
34832;SDS011;55941;50.800;4.342;2023-04-12T02:37:16;7.50;;;1.55;;
34832;SDS011;55941;50.800;4.342;2023-04-12T02:39:42;6.05;;;1.35;;
34832;SDS011;55941;50.800;4.342;2023-04-12T02:42:08;5.28;;;1.27;;
34832;SDS011;55941;50.800;4.342;2023-04-12T02:44:34;4.55;;;1.17;;
34832;SDS011;55941;50.800;4.342;2023-04-12T02:47:00;5.78;;;1.17;;
34832;SDS011;55941;50.800;4.342;2023-04-12T02:49:26;7.38;;;1.00;;
34832;SDS011;55941;50.800;4.342;2023-04-12T02:51:51;2.63;;;1.02;;
34832;SDS011;55941;50.800;4.342;2023-04-12T02:54:17;4.15;;;1.10;;
34832;SDS011;55941;50.800;4.342;2023-04-12T02:56:42;7.38;;;1.17;;
34832;SDS011;55941;50.800;4.342;2023-04-12T02:59:08;7.57;;;1.42;;
34832;SDS011;55941;50.800;4.342;2023-04-12T03:01:34;4.05;;;1.23;;
34832;SDS011;55941;50.800;4.342;2023-04-12T03:04:00;2.60;;;0.95;;
34832;SDS011;55941;50.800;4.342;2023-04-12T03:06:26;6.35;;;1.10;;
34832;SDS011;55941;50.800;4.342;2023-04-12T03:08:51;4.55;;;1.35;;
34832;SDS011;55941;50.800;4.342;2023-04-12T03:11:17;3.78;;;0.98;;
34832;SDS011;55941;50.800;4.342;2023-04-12T03:13:43;4.80;;;1.08;;
34832;SDS011;55941;50.800;4.342;2023-04-12T03:16:18;3.90;;;1.20;;
34832;SDS011;55941;50.800;4.342;2023-04-12T03:18:47;3.05;;;0.90;;
34832;SDS011;55941;50.800;4.342;2023-04-12T03:21:14;6.80;;;1.10;;
34832;SDS011;55941;50.800;4.342;2023-04-12T03:23:40;3.78;;;1.25;;
34832;SDS011;55941;50.800;4.342;2023-04-12T03:26:06;4.30;;;1.17;;
34832;SDS011;55941;50.800;4.342;2023-04-12T03:28:32;2.97;;;0.98;;
34832;SDS011;55941;50.800;4.342;2023-04-12T03:30:58;5.25;;;1.13;;
34832;SDS011;55941;50.800;4.342;2023-04-12T03:33:26;3.85;;;1.10;;
34832;SDS011;55941;50.800;4.342;2023-04-12T03:35:52;5.18;;;1.60;;
34832;SDS011;55941;50.800;4.342;2023-04-12T03:38:17;4.00;;;0.98;;
34832;SDS011;55941;50.800;4.342;2023-04-12T03:40:43;4.78;;;1.10;;
34832;SDS011;55941;50.800;4.342;2023-04-12T03:43:09;6.00;;;1.20;;
34832;SDS011;55941;50.800;4.342;2023-04-12T03:45:34;4.97;;;1.08;;
34832;SDS011;55941;50.800;4.342;2023-04-12T03:48:00;7.95;;;1.10;;
34832;SDS011;55941;50.800;4.342;2023-04-12T03:50:26;4.45;;;1.33;;
34832;SDS011;55941;50.800;4.342;2023-04-12T03:52:53;3.95;;;1.10;;
34832;SDS011;55941;50.800;4.342;2023-04-12T03:55:19;5.93;;;1.30;;
34832;SDS011;55941;50.800;4.342;2023-04-12T03:57:45;4.72;;;0.90;;
34832;SDS011;55941;50.800;4.342;2023-04-12T04:00:11;1.83;;;0.90;;
34832;SDS011;55941;50.800;4.342;2023-04-12T04:02:37;4.15;;;1.05;;
34832;SDS011;55941;50.800;4.342;2023-04-12T04:05:03;4.93;;;1.23;;
34832;SDS011;55941;50.800;4.342;2023-04-12T04:07:29;4.72;;;0.80;;
34832;SDS011;55941;50.800;4.342;2023-04-12T04:09:55;2.67;;;0.90;;
34832;SDS011;55941;50.800;4.342;2023-04-12T04:12:21;1.80;;;0.75;;
34832;SDS011;55941;50.800;4.342;2023-04-12T04:14:47;2.97;;;0.90;;
34832;SDS011;55941;50.800;4.342;2023-04-12T04:17:13;3.47;;;0.90;;
34832;SDS011;55941;50.800;4.342;2023-04-12T04:19:38;3.85;;;0.88;;
34832;SDS011;55941;50.800;4.342;2023-04-12T04:22:05;1.65;;;0.70;;
34832;SDS011;55941;50.800;4.342;2023-04-12T04:24:31;2.15;;;1.00;;
34832;SDS011;55941;50.800;4.342;2023-04-12T04:26:58;6.93;;;1.15;;
34832;SDS011;55941;50.800;4.342;2023-04-12T04:29:23;4.05;;;0.90;;
34832;SDS011;55941;50.800;4.342;2023-04-12T04:31:50;3.88;;;1.08;;
34832;SDS011;55941;50.800;4.342;2023-04-12T04:34:17;6.82;;;1.00;;
34832;SDS011;55941;50.800;4.342;2023-04-12T04:36:43;3.95;;;1.10;;
34832;SDS011;55941;50.800;4.342;2023-04-12T04:39:08;4.43;;;1.13;;
34832;SDS011;55941;50.800;4.342;2023-04-12T04:41:34;5.80;;;1.27;;
34832;SDS011;55941;50.800;4.342;2023-04-12T04:44:06;6.60;;;1.52;;
34832;SDS011;55941;50.800;4.342;2023-04-12T04:49:02;9.15;;;1.60;;
34832;SDS011;55941;50.800;4.342;2023-04-12T04:51:28;8.07;;;1.70;;
34832;SDS011;55941;50.800;4.342;2023-04-12T04:53:54;4.30;;;1.30;;
34832;SDS011;55941;50.800;4.342;2023-04-12T04:56:20;5.07;;;1.65;;
34832;SDS011;55941;50.800;4.342;2023-04-12T04:58:47;4.70;;;1.17;;
34832;SDS011;55941;50.800;4.342;2023-04-12T05:01:14;2.13;;;1.25;;
34832;SDS011;55941;50.800;4.342;2023-04-12T05:03:40;5.32;;;1.35;;
34832;SDS011;55941;50.800;4.342;2023-04-12T05:06:08;3.53;;;1.17;;
34832;SDS011;55941;50.800;4.342;2023-04-12T05:08:35;6.70;;;1.20;;
34832;SDS011;55941;50.800;4.342;2023-04-12T05:11:01;3.53;;;1.20;;
34832;SDS011;55941;50.800;4.342;2023-04-12T05:13:27;8.88;;;1.88;;
34832;SDS011;55941;50.800;4.342;2023-04-12T05:15:53;4.45;;;1.13;;
34832;SDS011;55941;50.800;4.342;2023-04-12T05:18:18;6.38;;;1.63;;
34832;SDS011;55941;50.800;4.342;2023-04-12T05:20:44;8.43;;;2.00;;
34832;SDS011;55941;50.800;4.342;2023-04-12T05:23:12;9.65;;;1.42;;
34832;SDS011;55941;50.800;4.342;2023-04-12T05:25:47;8.73;;;1.67;;
34832;SDS011;55941;50.800;4.342;2023-04-12T05:28:14;9.35;;;1.77;;
34832;SDS011;55941;50.800;4.342;2023-04-12T05:30:41;5.47;;;1.30;;
34832;SDS011;55941;50.800;4.342;2023-04-12T05:33:07;9.80;;;2.08;;
34832;SDS011;55941;50.800;4.342;2023-04-12T05:35:33;8.73;;;1.70;;
34832;SDS011;55941;50.800;4.342;2023-04-12T05:37:59;14.48;;;1.75;;
34832;SDS011;55941;50.800;4.342;2023-04-12T05:40:24;12.00;;;2.17;;
34832;SDS011;55941;50.800;4.342;2023-04-12T05:42:50;10.10;;;2.22;;
34832;SDS011;55941;50.800;4.342;2023-04-12T05:45:16;9.82;;;2.42;;
34832;SDS011;55941;50.800;4.342;2023-04-12T05:47:42;14.50;;;2.13;;
34832;SDS011;55941;50.800;4.342;2023-04-12T05:50:07;14.10;;;2.20;;
34832;SDS011;55941;50.800;4.342;2023-04-12T05:52:35;9.85;;;2.15;;
34832;SDS011;55941;50.800;4.342;2023-04-12T05:55:01;10.43;;;1.92;;
34832;SDS011;55941;50.800;4.342;2023-04-12T05:57:27;11.80;;;2.03;;
34832;SDS011;55941;50.800;4.342;2023-04-12T05:59:53;11.93;;;2.55;;
34832;SDS011;55941;50.800;4.342;2023-04-12T06:02:18;13.70;;;2.08;;
34832;SDS011;55941;50.800;4.342;2023-04-12T06:04:44;20.88;;;2.85;;
34832;SDS011;55941;50.800;4.342;2023-04-12T06:07:11;18.33;;;2.78;;
34832;SDS011;55941;50.800;4.342;2023-04-12T06:09:40;18.48;;;2.42;;
34832;SDS011;55941;50.800;4.342;2023-04-12T06:12:06;17.42;;;2.60;;
34832;SDS011;55941;50.800;4.342;2023-04-12T06:14:32;20.33;;;2.42;;
34832;SDS011;55941;50.800;4.342;2023-04-12T06:16:58;21.70;;;2.92;;
34832;SDS011;55941;50.800;4.342;2023-04-12T06:19:23;17.25;;;2.40;;
34832;SDS011;55941;50.800;4.342;2023-04-12T06:21:50;18.52;;;2.97;;
34832;SDS011;55941;50.800;4.342;2023-04-12T06:24:15;15.13;;;1.83;;
34832;SDS011;55941;50.800;4.342;2023-04-12T06:26:42;13.50;;;2.28;;
34832;SDS011;55941;50.800;4.342;2023-04-12T06:29:11;14.95;;;2.78;;
34832;SDS011;55941;50.800;4.342;2023-04-12T06:31:37;16.15;;;2.70;;
34832;SDS011;55941;50.800;4.342;2023-04-12T06:34:03;15.02;;;2.83;;
34832;SDS011;55941;50.800;4.342;2023-04-12T06:36:28;19.80;;;2.80;;
34832;SDS011;55941;50.800;4.342;2023-04-12T06:38:54;19.05;;;2.35;;
34832;SDS011;55941;50.800;4.342;2023-04-12T06:41:20;20.90;;;2.97;;
34832;SDS011;55941;50.800;4.342;2023-04-12T06:43:46;19.20;;;2.80;;
34832;SDS011;55941;50.800;4.342;2023-04-12T06:46:11;15.25;;;2.70;;
34832;SDS011;55941;50.800;4.342;2023-04-12T06:48:40;17.98;;;2.92;;
34832;SDS011;55941;50.800;4.342;2023-04-12T06:51:05;17.65;;;2.60;;
34832;SDS011;55941;50.800;4.342;2023-04-12T06:53:31;29.20;;;2.67;;
34832;SDS011;55941;50.800;4.342;2023-04-12T06:56:02;52.92;;;3.97;;
34832;SDS011;55941;50.800;4.342;2023-04-12T06:58:28;19.25;;;2.92;;
34832;SDS011;55941;50.800;4.342;2023-04-12T07:01:03;40.13;;;3.13;;
34832;SDS011;55941;50.800;4.342;2023-04-12T07:03:32;14.60;;;2.83;;
34832;SDS011;55941;50.800;4.342;2023-04-12T07:05:59;18.40;;;2.95;;
34832;SDS011;55941;50.800;4.342;2023-04-12T07:08:39;19.02;;;2.45;;
34832;SDS011;55941;50.800;4.342;2023-04-12T07:11:04;27.33;;;4.15;;
34832;SDS011;55941;50.800;4.342;2023-04-12T07:13:30;18.27;;;2.67;;
34832;SDS011;55941;50.800;4.342;2023-04-12T07:15:56;19.00;;;2.67;;
34832;SDS011;55941;50.800;4.342;2023-04-12T07:18:22;25.17;;;2.75;;
34832;SDS011;55941;50.800;4.342;2023-04-12T07:20:48;21.25;;;3.45;;
34832;SDS011;55941;50.800;4.342;2023-04-12T07:23:17;21.67;;;3.25;;
34832;SDS011;55941;50.800;4.342;2023-04-12T07:25:43;15.82;;;2.90;;
34832;SDS011;55941;50.800;4.342;2023-04-12T07:28:09;14.43;;;2.33;;
34832;SDS011;55941;50.800;4.342;2023-04-12T07:30:35;20.42;;;2.80;;
34832;SDS011;55941;50.800;4.342;2023-04-12T07:33:03;22.08;;;3.35;;
34832;SDS011;55941;50.800;4.342;2023-04-12T07:35:29;22.83;;;3.17;;
34832;SDS011;55941;50.800;4.342;2023-04-12T07:37:56;20.02;;;3.53;;
34832;SDS011;55941;50.800;4.342;2023-04-12T07:40:22;22.17;;;3.60;;
34832;SDS011;55941;50.800;4.342;2023-04-12T07:42:48;13.65;;;2.70;;
34832;SDS011;55941;50.800;4.342;2023-04-12T07:45:14;13.45;;;2.83;;
34832;SDS011;55941;50.800;4.342;2023-04-12T07:47:40;16.48;;;3.38;;
34832;SDS011;55941;50.800;4.342;2023-04-12T07:50:06;20.83;;;3.55;;
34832;SDS011;55941;50.800;4.342;2023-04-12T07:52:32;18.67;;;3.00;;
34832;SDS011;55941;50.800;4.342;2023-04-12T07:54:58;19.23;;;3.03;;
34832;SDS011;55941;50.800;4.342;2023-04-12T07:57:24;19.33;;;3.42;;
34832;SDS011;55941;50.800;4.342;2023-04-12T07:59:50;21.08;;;4.60;;
34832;SDS011;55941;50.800;4.342;2023-04-12T08:02:16;18.90;;;3.65;;
34832;SDS011;55941;50.800;4.342;2023-04-12T08:04:52;21.92;;;3.63;;
34832;SDS011;55941;50.800;4.342;2023-04-12T08:07:18;26.48;;;3.53;;
34832;SDS011;55941;50.800;4.342;2023-04-12T08:09:45;18.63;;;3.42;;
34832;SDS011;55941;50.800;4.342;2023-04-12T08:12:11;13.90;;;2.80;;
34832;SDS011;55941;50.800;4.342;2023-04-12T08:14:37;16.75;;;2.80;;
34832;SDS011;55941;50.800;4.342;2023-04-12T08:17:04;21.23;;;3.38;;
34832;SDS011;55941;50.800;4.342;2023-04-12T08:19:30;18.85;;;2.90;;
34832;SDS011;55941;50.800;4.342;2023-04-12T08:21:56;18.45;;;3.25;;
34832;SDS011;55941;50.800;4.342;2023-04-12T08:24:22;21.83;;;4.28;;
34832;SDS011;55941;50.800;4.342;2023-04-12T08:26:49;18.80;;;3.67;;
34832;SDS011;55941;50.800;4.342;2023-04-12T08:29:15;15.68;;;3.13;;
34832;SDS011;55941;50.800;4.342;2023-04-12T08:31:40;31.40;;;4.03;;
34832;SDS011;55941;50.800;4.342;2023-04-12T08:34:06;23.30;;;4.15;;
34832;SDS011;55941;50.800;4.342;2023-04-12T08:36:32;26.02;;;3.47;;
34832;SDS011;55941;50.800;4.342;2023-04-12T08:38:58;18.77;;;3.72;;
34832;SDS011;55941;50.800;4.342;2023-04-12T08:41:24;20.08;;;4.25;;
34832;SDS011;55941;50.800;4.342;2023-04-12T08:43:50;22.80;;;4.20;;
34832;SDS011;55941;50.800;4.342;2023-04-12T08:46:16;26.30;;;4.35;;
34832;SDS011;55941;50.800;4.342;2023-04-12T08:48:46;18.88;;;4.80;;
34832;SDS011;55941;50.800;4.342;2023-04-12T08:51:18;19.55;;;3.80;;
34832;SDS011;55941;50.800;4.342;2023-04-12T08:53:44;27.60;;;3.80;;
34832;SDS011;55941;50.800;4.342;2023-04-12T08:56:10;24.77;;;3.90;;
34832;SDS011;55941;50.800;4.342;2023-04-12T08:58:42;19.00;;;3.10;;
34832;SDS011;55941;50.800;4.342;2023-04-12T09:01:11;20.40;;;3.22;;
34832;SDS011;55941;50.800;4.342;2023-04-12T09:03:44;24.75;;;3.78;;
34832;SDS011;55941;50.800;4.342;2023-04-12T09:06:11;22.60;;;3.80;;
34832;SDS011;55941;50.800;4.342;2023-04-12T09:08:49;17.33;;;3.45;;
34832;SDS011;55941;50.800;4.342;2023-04-12T09:11:28;27.00;;;2.88;;
34832;SDS011;55941;50.800;4.342;2023-04-12T09:13:54;18.20;;;3.40;;
34832;SDS011;55941;50.800;4.342;2023-04-12T09:16:36;28.95;;;3.90;;
34832;SDS011;55941;50.800;4.342;2023-04-12T09:19:03;23.08;;;4.03;;
34832;SDS011;55941;50.800;4.342;2023-04-12T09:21:33;24.10;;;3.50;;
34832;SDS011;55941;50.800;4.342;2023-04-12T09:26:29;19.52;;;3.13;;
34832;SDS011;55941;50.800;4.342;2023-04-12T09:28:55;18.73;;;3.58;;
34832;SDS011;55941;50.800;4.342;2023-04-12T09:31:21;26.13;;;3.45;;
34832;SDS011;55941;50.800;4.342;2023-04-12T09:33:47;23.52;;;3.35;;
34832;SDS011;55941;50.800;4.342;2023-04-12T09:36:13;20.63;;;2.75;;
34832;SDS011;55941;50.800;4.342;2023-04-12T09:38:40;21.33;;;3.25;;
34832;SDS011;55941;50.800;4.342;2023-04-12T09:41:25;23.23;;;4.03;;
34832;SDS011;55941;50.800;4.342;2023-04-12T09:43:53;22.90;;;3.42;;
34832;SDS011;55941;50.800;4.342;2023-04-12T09:46:19;16.85;;;2.20;;
34832;SDS011;55941;50.800;4.342;2023-04-12T09:48:48;16.83;;;3.20;;
34832;SDS011;55941;50.800;4.342;2023-04-12T09:51:31;13.27;;;2.70;;
34832;SDS011;55941;50.800;4.342;2023-04-12T09:56:29;14.23;;;2.30;;
34832;SDS011;55941;50.800;4.342;2023-04-12T09:59:00;14.80;;;2.63;;
34832;SDS011;55941;50.800;4.342;2023-04-12T10:01:28;17.20;;;2.65;;
34832;SDS011;55941;50.800;4.342;2023-04-12T10:04:00;16.70;;;2.92;;
34832;SDS011;55941;50.800;4.342;2023-04-12T10:06:27;17.23;;;2.83;;
34832;SDS011;55941;50.800;4.342;2023-04-12T10:08:54;14.48;;;2.83;;
34832;SDS011;55941;50.800;4.342;2023-04-12T10:11:20;20.83;;;2.80;;
34832;SDS011;55941;50.800;4.342;2023-04-12T10:13:46;16.77;;;3.20;;
34832;SDS011;55941;50.800;4.342;2023-04-12T10:16:13;21.52;;;3.55;;
34832;SDS011;55941;50.800;4.342;2023-04-12T10:18:40;16.35;;;2.90;;
34832;SDS011;55941;50.800;4.342;2023-04-12T10:21:07;16.80;;;3.55;;
34832;SDS011;55941;50.800;4.342;2023-04-12T10:23:33;18.30;;;3.13;;
34832;SDS011;55941;50.800;4.342;2023-04-12T10:26:00;14.70;;;3.17;;
34832;SDS011;55941;50.800;4.342;2023-04-12T10:28:28;15.90;;;3.88;;
34832;SDS011;55941;50.800;4.342;2023-04-12T10:30:58;16.00;;;2.72;;
34832;SDS011;55941;50.800;4.342;2023-04-12T10:33:25;16.98;;;2.95;;
34832;SDS011;55941;50.800;4.342;2023-04-12T10:36:01;23.67;;;4.43;;
34832;SDS011;55941;50.800;4.342;2023-04-12T10:38:32;24.08;;;3.60;;
34832;SDS011;55941;50.800;4.342;2023-04-12T10:43:44;22.33;;;3.33;;
34832;SDS011;55941;50.800;4.342;2023-04-12T10:49:08;23.40;;;3.85;;
34832;SDS011;55941;50.800;4.342;2023-04-12T10:51:38;16.25;;;3.70;;
34832;SDS011;55941;50.800;4.342;2023-04-12T10:56:40;18.52;;;3.53;;
34832;SDS011;55941;50.800;4.342;2023-04-12T10:59:07;17.83;;;3.43;;
34832;SDS011;55941;50.800;4.342;2023-04-12T11:01:34;21.35;;;3.83;;
34832;SDS011;55941;50.800;4.342;2023-04-12T11:09:28;17.52;;;3.13;;
34832;SDS011;55941;50.800;4.342;2023-04-12T11:19:38;31.38;;;5.68;;
34832;SDS011;55941;50.800;4.342;2023-04-12T11:22:06;14.20;;;2.90;;
34832;SDS011;55941;50.800;4.342;2023-04-12T11:24:36;16.45;;;2.83;;
34832;SDS011;55941;50.800;4.342;2023-04-12T11:27:03;16.55;;;2.20;;
34832;SDS011;55941;50.800;4.342;2023-04-12T11:29:28;18.58;;;3.35;;
34832;SDS011;55941;50.800;4.342;2023-04-12T11:31:56;19.42;;;3.45;;
34832;SDS011;55941;50.800;4.342;2023-04-12T11:34:23;17.40;;;3.20;;
34832;SDS011;55941;50.800;4.342;2023-04-12T11:36:52;23.20;;;3.47;;
34832;SDS011;55941;50.800;4.342;2023-04-12T11:39:18;19.20;;;3.20;;
34832;SDS011;55941;50.800;4.342;2023-04-12T11:41:46;20.25;;;2.88;;
34832;SDS011;55941;50.800;4.342;2023-04-12T11:44:13;20.55;;;2.40;;
34832;SDS011;55941;50.800;4.342;2023-04-12T11:46:43;13.52;;;2.70;;
34832;SDS011;55941;50.800;4.342;2023-04-12T11:49:14;19.80;;;3.08;;
34832;SDS011;55941;50.800;4.342;2023-04-12T11:51:41;14.90;;;2.60;;
34832;SDS011;55941;50.800;4.342;2023-04-12T11:54:09;16.92;;;2.58;;
34832;SDS011;55941;50.800;4.342;2023-04-12T11:56:35;15.65;;;2.40;;
34832;SDS011;55941;50.800;4.342;2023-04-12T11:59:01;14.02;;;2.25;;
34832;SDS011;55941;50.800;4.342;2023-04-12T12:01:27;10.68;;;2.05;;
34832;SDS011;55941;50.800;4.342;2023-04-12T12:03:53;11.85;;;2.15;;
34832;SDS011;55941;50.800;4.342;2023-04-12T12:06:20;12.48;;;2.20;;
34832;SDS011;55941;50.800;4.342;2023-04-12T12:08:48;14.85;;;2.08;;
34832;SDS011;55941;50.800;4.342;2023-04-12T12:11:15;15.27;;;2.67;;
34832;SDS011;55941;50.800;4.342;2023-04-12T12:14:03;14.57;;;2.15;;
34832;SDS011;55941;50.800;4.342;2023-04-12T12:16:28;11.88;;;2.13;;
34832;SDS011;55941;50.800;4.342;2023-04-12T12:18:54;22.70;;;2.60;;
34832;SDS011;55941;50.800;4.342;2023-04-12T12:21:22;11.15;;;2.47;;
34832;SDS011;55941;50.800;4.342;2023-04-12T12:23:50;14.88;;;3.20;;
34832;SDS011;55941;50.800;4.342;2023-04-12T12:26:19;10.25;;;2.35;;
34832;SDS011;55941;50.800;4.342;2023-04-12T12:28:55;14.15;;;2.28;;
34832;SDS011;55941;50.800;4.342;2023-04-12T12:31:24;16.75;;;3.08;;
34832;SDS011;55941;50.800;4.342;2023-04-12T12:33:56;12.40;;;2.63;;
34832;SDS011;55941;50.800;4.342;2023-04-12T12:36:29;7.43;;;2.28;;
34832;SDS011;55941;50.800;4.342;2023-04-12T12:39:10;8.38;;;1.50;;
34832;SDS011;55941;50.800;4.342;2023-04-12T12:41:36;9.10;;;1.60;;
34832;SDS011;55941;50.800;4.342;2023-04-12T12:44:02;12.23;;;1.70;;
34832;SDS011;55941;50.800;4.342;2023-04-12T12:46:28;8.07;;;1.90;;
34832;SDS011;55941;50.800;4.342;2023-04-12T12:48:53;10.13;;;1.73;;
34832;SDS011;55941;50.800;4.342;2023-04-12T12:51:19;13.23;;;2.00;;
34832;SDS011;55941;50.800;4.342;2023-04-12T12:53:45;4.95;;;1.30;;
34832;SDS011;55941;50.800;4.342;2023-04-12T12:56:11;7.47;;;1.52;;
34832;SDS011;55941;50.800;4.342;2023-04-12T12:58:39;10.32;;;1.90;;
34832;SDS011;55941;50.800;4.342;2023-04-12T13:01:05;15.55;;;2.28;;
34832;SDS011;55941;50.800;4.342;2023-04-12T13:03:32;13.15;;;1.98;;
34832;SDS011;55941;50.800;4.342;2023-04-12T13:05:57;7.80;;;1.60;;
34832;SDS011;55941;50.800;4.342;2023-04-12T13:08:24;11.57;;;1.50;;
34832;SDS011;55941;50.800;4.342;2023-04-12T13:10:50;8.70;;;1.58;;
34832;SDS011;55941;50.800;4.342;2023-04-12T13:13:17;6.22;;;1.40;;
34832;SDS011;55941;50.800;4.342;2023-04-12T13:15:45;7.30;;;1.70;;
34832;SDS011;55941;50.800;4.342;2023-04-12T13:18:11;4.72;;;1.40;;
34832;SDS011;55941;50.800;4.342;2023-04-12T13:20:41;11.98;;;1.77;;
34832;SDS011;55941;50.800;4.342;2023-04-12T13:23:07;7.35;;;1.70;;
34832;SDS011;55941;50.800;4.342;2023-04-12T13:25:33;10.52;;;1.58;;
34832;SDS011;55941;50.800;4.342;2023-04-12T13:27:58;10.02;;;1.60;;
34832;SDS011;55941;50.800;4.342;2023-04-12T13:30:24;4.03;;;1.05;;
34832;SDS011;55941;50.800;4.342;2023-04-12T13:32:50;10.82;;;2.17;;
34832;SDS011;55941;50.800;4.342;2023-04-12T13:35:16;7.20;;;2.00;;
34832;SDS011;55941;50.800;4.342;2023-04-12T13:37:42;5.63;;;1.80;;
34832;SDS011;55941;50.800;4.342;2023-04-12T13:40:08;4.82;;;1.48;;
34832;SDS011;55941;50.800;4.342;2023-04-12T13:42:35;8.95;;;1.80;;
34832;SDS011;55941;50.800;4.342;2023-04-12T13:45:00;4.75;;;1.33;;
34832;SDS011;55941;50.800;4.342;2023-04-12T13:47:28;5.57;;;1.17;;
34832;SDS011;55941;50.800;4.342;2023-04-12T13:49:53;12.23;;;1.58;;
34832;SDS011;55941;50.800;4.342;2023-04-12T13:52:19;9.07;;;1.88;;
34832;SDS011;55941;50.800;4.342;2023-04-12T13:54:45;5.45;;;1.33;;
34832;SDS011;55941;50.800;4.342;2023-04-12T13:57:10;11.50;;;1.40;;
34832;SDS011;55941;50.800;4.342;2023-04-12T13:59:36;5.05;;;0.95;;
34832;SDS011;55941;50.800;4.342;2023-04-12T14:02:02;7.10;;;1.38;;
34832;SDS011;55941;50.800;4.342;2023-04-12T14:04:27;11.20;;;1.38;;
34832;SDS011;55941;50.800;4.342;2023-04-12T14:06:55;14.45;;;1.65;;
34832;SDS011;55941;50.800;4.342;2023-04-12T14:09:22;6.93;;;1.52;;
34832;SDS011;55941;50.800;4.342;2023-04-12T14:11:53;10.32;;;1.50;;
34832;SDS011;55941;50.800;4.342;2023-04-12T14:14:20;8.95;;;1.65;;
34832;SDS011;55941;50.800;4.342;2023-04-12T14:16:49;5.47;;;1.48;;
34832;SDS011;55941;50.800;4.342;2023-04-12T14:19:18;8.32;;;1.50;;
34832;SDS011;55941;50.800;4.342;2023-04-12T14:21:45;8.10;;;1.20;;
34832;SDS011;55941;50.800;4.342;2023-04-12T14:24:11;6.40;;;1.15;;
34832;SDS011;55941;50.800;4.342;2023-04-12T14:26:37;5.50;;;0.77;;
34832;SDS011;55941;50.800;4.342;2023-04-12T14:29:04;5.32;;;1.20;;
34832;SDS011;55941;50.800;4.342;2023-04-12T14:31:30;2.67;;;0.90;;
34832;SDS011;55941;50.800;4.342;2023-04-12T14:33:56;5.00;;;0.90;;
34832;SDS011;55941;50.800;4.342;2023-04-12T14:36:22;5.18;;;1.77;;
34832;SDS011;55941;50.800;4.342;2023-04-12T14:38:47;7.20;;;1.15;;
34832;SDS011;55941;50.800;4.342;2023-04-12T14:41:13;2.75;;;0.95;;
34832;SDS011;55941;50.800;4.342;2023-04-12T14:43:40;3.63;;;0.75;;
34832;SDS011;55941;50.800;4.342;2023-04-12T14:46:06;7.15;;;1.13;;
34832;SDS011;55941;50.800;4.342;2023-04-12T14:48:32;6.68;;;1.85;;
34832;SDS011;55941;50.800;4.342;2023-04-12T14:50:57;8.00;;;1.30;;
34832;SDS011;55941;50.800;4.342;2023-04-12T14:53:23;6.35;;;1.15;;
34832;SDS011;55941;50.800;4.342;2023-04-12T14:55:49;7.20;;;1.30;;
34832;SDS011;55941;50.800;4.342;2023-04-12T14:58:15;5.47;;;1.38;;
34832;SDS011;55941;50.800;4.342;2023-04-12T15:00:41;5.28;;;1.50;;
34832;SDS011;55941;50.800;4.342;2023-04-12T15:03:06;4.45;;;1.08;;
34832;SDS011;55941;50.800;4.342;2023-04-12T15:05:32;4.97;;;1.13;;
34832;SDS011;55941;50.800;4.342;2023-04-12T15:07:59;7.70;;;1.58;;
34832;SDS011;55941;50.800;4.342;2023-04-12T15:10:25;6.68;;;1.10;;
34832;SDS011;55941;50.800;4.342;2023-04-12T15:12:52;5.13;;;1.45;;
34832;SDS011;55941;50.800;4.342;2023-04-12T15:15:18;4.30;;;1.23;;
34832;SDS011;55941;50.800;4.342;2023-04-12T15:17:44;8.23;;;1.48;;
34832;SDS011;55941;50.800;4.342;2023-04-12T15:20:10;9.07;;;1.73;;
34832;SDS011;55941;50.800;4.342;2023-04-12T15:22:37;11.32;;;1.85;;